sensor_id;sensor_type;location;lat;lon;timestamp;P1;durP1;ratioP1;P2;durP2;ratioP2
9306;SDS011;4691;47.612;7.610;2022-11-10T00:01:47;19.20;;;10.23;;
9306;SDS011;4691;47.612;7.610;2022-11-10T00:04:12;15.00;;;9.10;;
9306;SDS011;4691;47.612;7.610;2022-11-10T00:06:38;14.55;;;9.20;;
9306;SDS011;4691;47.612;7.610;2022-11-10T00:09:05;19.05;;;9.82;;
9306;SDS011;4691;47.612;7.610;2022-11-10T00:11:30;18.55;;;10.60;;
9306;SDS011;4691;47.612;7.610;2022-11-10T00:13:57;19.25;;;9.35;;
9306;SDS011;4691;47.612;7.610;2022-11-10T00:16:41;15.88;;;10.07;;
9306;SDS011;4691;47.612;7.610;2022-11-10T00:19:25;19.13;;;10.98;;
9306;SDS011;4691;47.612;7.610;2022-11-10T00:21:51;12.65;;;7.65;;
9306;SDS011;4691;47.612;7.610;2022-11-10T00:24:17;13.00;;;8.27;;
9306;SDS011;4691;47.612;7.610;2022-11-10T00:26:42;26.27;;;11.45;;
9306;SDS011;4691;47.612;7.610;2022-11-10T00:29:08;16.33;;;9.57;;
9306;SDS011;4691;47.612;7.610;2022-11-10T00:31:35;14.98;;;8.25;;
9306;SDS011;4691;47.612;7.610;2022-11-10T00:34:01;16.33;;;9.32;;
9306;SDS011;4691;47.612;7.610;2022-11-10T00:36:27;16.20;;;10.13;;
9306;SDS011;4691;47.612;7.610;2022-11-10T00:38:52;18.85;;;9.95;;
9306;SDS011;4691;47.612;7.610;2022-11-10T00:41:18;17.85;;;10.45;;
9306;SDS011;4691;47.612;7.610;2022-11-10T00:43:43;12.73;;;8.82;;
9306;SDS011;4691;47.612;7.610;2022-11-10T00:46:09;16.75;;;10.10;;
9306;SDS011;4691;47.612;7.610;2022-11-10T00:48:34;17.17;;;9.93;;
9306;SDS011;4691;47.612;7.610;2022-11-10T00:50:59;24.30;;;12.73;;
9306;SDS011;4691;47.612;7.610;2022-11-10T00:53:25;22.95;;;13.07;;
9306;SDS011;4691;47.612;7.610;2022-11-10T00:55:50;17.80;;;10.70;;
9306;SDS011;4691;47.612;7.610;2022-11-10T00:58:16;16.48;;;8.85;;
9306;SDS011;4691;47.612;7.610;2022-11-10T01:00:41;17.45;;;10.35;;
9306;SDS011;4691;47.612;7.610;2022-11-10T01:03:07;26.10;;;11.80;;
9306;SDS011;4691;47.612;7.610;2022-11-10T01:05:35;20.70;;;10.07;;
9306;SDS011;4691;47.612;7.610;2022-11-10T01:08:01;15.60;;;9.93;;
9306;SDS011;4691;47.612;7.610;2022-11-10T01:10:27;27.25;;;12.57;;
9306;SDS011;4691;47.612;7.610;2022-11-10T01:12:52;30.88;;;12.63;;
9306;SDS011;4691;47.612;7.610;2022-11-10T01:15:18;18.05;;;10.23;;
9306;SDS011;4691;47.612;7.610;2022-11-10T01:17:44;19.58;;;10.13;;
9306;SDS011;4691;47.612;7.610;2022-11-10T01:20:10;13.90;;;9.88;;
9306;SDS011;4691;47.612;7.610;2022-11-10T01:22:35;22.42;;;11.75;;
9306;SDS011;4691;47.612;7.610;2022-11-10T01:25:01;22.40;;;11.63;;
9306;SDS011;4691;47.612;7.610;2022-11-10T01:27:26;16.77;;;9.20;;
9306;SDS011;4691;47.612;7.610;2022-11-10T01:29:52;19.60;;;9.77;;
9306;SDS011;4691;47.612;7.610;2022-11-10T01:32:17;23.83;;;11.95;;
9306;SDS011;4691;47.612;7.610;2022-11-10T01:34:43;20.20;;;11.18;;
9306;SDS011;4691;47.612;7.610;2022-11-10T01:37:08;19.25;;;10.93;;
9306;SDS011;4691;47.612;7.610;2022-11-10T01:39:33;23.25;;;11.05;;
9306;SDS011;4691;47.612;7.610;2022-11-10T01:41:59;23.42;;;11.02;;
9306;SDS011;4691;47.612;7.610;2022-11-10T01:44:24;20.63;;;10.65;;
9306;SDS011;4691;47.612;7.610;2022-11-10T01:46:50;16.52;;;9.88;;
9306;SDS011;4691;47.612;7.610;2022-11-10T01:49:16;20.98;;;11.10;;
9306;SDS011;4691;47.612;7.610;2022-11-10T01:54:33;18.65;;;9.82;;
9306;SDS011;4691;47.612;7.610;2022-11-10T01:57:03;17.33;;;9.38;;
9306;SDS011;4691;47.612;7.610;2022-11-10T02:02:02;27.40;;;11.20;;
9306;SDS011;4691;47.612;7.610;2022-11-10T02:04:39;18.20;;;9.60;;
9306;SDS011;4691;47.612;7.610;2022-11-10T02:07:05;19.27;;;11.80;;
9306;SDS011;4691;47.612;7.610;2022-11-10T02:09:32;29.25;;;11.57;;
9306;SDS011;4691;47.612;7.610;2022-11-10T02:11:57;21.75;;;9.90;;
9306;SDS011;4691;47.612;7.610;2022-11-10T02:14:22;19.10;;;9.70;;
9306;SDS011;4691;47.612;7.610;2022-11-10T02:16:48;26.42;;;11.73;;
9306;SDS011;4691;47.612;7.610;2022-11-10T02:19:15;17.17;;;9.70;;
9306;SDS011;4691;47.612;7.610;2022-11-10T02:21:45;19.60;;;10.00;;
9306;SDS011;4691;47.612;7.610;2022-11-10T02:24:11;18.88;;;9.48;;
9306;SDS011;4691;47.612;7.610;2022-11-10T02:26:38;26.95;;;11.55;;
9306;SDS011;4691;47.612;7.610;2022-11-10T02:29:07;20.17;;;9.50;;
9306;SDS011;4691;47.612;7.610;2022-11-10T02:31:33;30.90;;;12.15;;
9306;SDS011;4691;47.612;7.610;2022-11-10T02:33:59;21.67;;;11.38;;
9306;SDS011;4691;47.612;7.610;2022-11-10T02:36:24;32.20;;;12.90;;
9306;SDS011;4691;47.612;7.610;2022-11-10T02:38:49;17.98;;;10.27;;
9306;SDS011;4691;47.612;7.610;2022-11-10T02:41:14;29.52;;;12.48;;
9306;SDS011;4691;47.612;7.610;2022-11-10T02:43:40;30.40;;;13.40;;
9306;SDS011;4691;47.612;7.610;2022-11-10T02:46:05;31.23;;;12.20;;
9306;SDS011;4691;47.612;7.610;2022-11-10T02:48:30;31.73;;;12.30;;
9306;SDS011;4691;47.612;7.610;2022-11-10T02:50:56;17.17;;;9.60;;
9306;SDS011;4691;47.612;7.610;2022-11-10T02:53:21;22.20;;;10.95;;
9306;SDS011;4691;47.612;7.610;2022-11-10T02:55:46;18.27;;;8.88;;
9306;SDS011;4691;47.612;7.610;2022-11-10T02:58:11;20.58;;;10.55;;
9306;SDS011;4691;47.612;7.610;2022-11-10T03:00:37;13.82;;;9.43;;
9306;SDS011;4691;47.612;7.610;2022-11-10T03:03:02;24.85;;;12.30;;
9306;SDS011;4691;47.612;7.610;2022-11-10T03:05:29;18.08;;;9.95;;
9306;SDS011;4691;47.612;7.610;2022-11-10T03:07:56;30.88;;;12.55;;
9306;SDS011;4691;47.612;7.610;2022-11-10T03:10:23;23.90;;;10.77;;
9306;SDS011;4691;47.612;7.610;2022-11-10T03:12:52;30.33;;;11.70;;
9306;SDS011;4691;47.612;7.610;2022-11-10T03:15:19;28.58;;;12.13;;
9306;SDS011;4691;47.612;7.610;2022-11-10T03:19:33;22.67;;;9.77;;
9306;SDS011;4691;47.612;7.610;2022-11-10T03:21:58;27.90;;;12.23;;
9306;SDS011;4691;47.612;7.610;2022-11-10T03:24:23;30.65;;;11.57;;
9306;SDS011;4691;47.612;7.610;2022-11-10T03:26:49;23.85;;;10.38;;
9306;SDS011;4691;47.612;7.610;2022-11-10T03:29:14;25.42;;;10.30;;
9306;SDS011;4691;47.612;7.610;2022-11-10T03:31:40;24.50;;;10.30;;
9306;SDS011;4691;47.612;7.610;2022-11-10T03:34:05;26.25;;;11.77;;
9306;SDS011;4691;47.612;7.610;2022-11-10T03:36:30;21.80;;;8.35;;
9306;SDS011;4691;47.612;7.610;2022-11-10T03:38:56;21.60;;;9.73;;
9306;SDS011;4691;47.612;7.610;2022-11-10T03:41:21;19.98;;;9.07;;
9306;SDS011;4691;47.612;7.610;2022-11-10T03:43:47;18.13;;;8.90;;
9306;SDS011;4691;47.612;7.610;2022-11-10T03:46:13;20.88;;;8.93;;
9306;SDS011;4691;47.612;7.610;2022-11-10T03:48:39;25.23;;;9.68;;
9306;SDS011;4691;47.612;7.610;2022-11-10T03:51:05;15.23;;;8.38;;
9306;SDS011;4691;47.612;7.610;2022-11-10T03:53:30;17.92;;;8.52;;
9306;SDS011;4691;47.612;7.610;2022-11-10T03:55:58;17.70;;;8.70;;
9306;SDS011;4691;47.612;7.610;2022-11-10T03:58:25;19.20;;;8.82;;
9306;SDS011;4691;47.612;7.610;2022-11-10T04:00:52;20.75;;;9.95;;
9306;SDS011;4691;47.612;7.610;2022-11-10T04:03:18;29.42;;;12.52;;
9306;SDS011;4691;47.612;7.610;2022-11-10T04:05:43;18.17;;;9.32;;
9306;SDS011;4691;47.612;7.610;2022-11-10T04:08:27;25.92;;;10.45;;
9306;SDS011;4691;47.612;7.610;2022-11-10T04:11:11;23.10;;;10.93;;
9306;SDS011;4691;47.612;7.610;2022-11-10T04:13:36;27.30;;;12.10;;
9306;SDS011;4691;47.612;7.610;2022-11-10T04:16:20;17.00;;;9.18;;
9306;SDS011;4691;47.612;7.610;2022-11-10T04:18:45;21.52;;;9.75;;
9306;SDS011;4691;47.612;7.610;2022-11-10T04:21:11;19.50;;;9.85;;
9306;SDS011;4691;47.612;7.610;2022-11-10T04:23:36;21.13;;;10.07;;
9306;SDS011;4691;47.612;7.610;2022-11-10T04:26:05;28.98;;;11.95;;
9306;SDS011;4691;47.612;7.610;2022-11-10T04:28:51;33.10;;;13.07;;
9306;SDS011;4691;47.612;7.610;2022-11-10T04:31:18;24.27;;;10.70;;
9306;SDS011;4691;47.612;7.610;2022-11-10T04:33:45;19.83;;;10.52;;
9306;SDS011;4691;47.612;7.610;2022-11-10T04:36:12;34.28;;;12.93;;
9306;SDS011;4691;47.612;7.610;2022-11-10T04:38:40;20.17;;;9.45;;
9306;SDS011;4691;47.612;7.610;2022-11-10T04:41:05;17.08;;;8.38;;
9306;SDS011;4691;47.612;7.610;2022-11-10T04:43:31;20.63;;;10.10;;
9306;SDS011;4691;47.612;7.610;2022-11-10T04:45:57;24.58;;;10.38;;
9306;SDS011;4691;47.612;7.610;2022-11-10T04:48:23;17.23;;;9.05;;
9306;SDS011;4691;47.612;7.610;2022-11-10T04:50:50;19.02;;;8.32;;
9306;SDS011;4691;47.612;7.610;2022-11-10T04:53:15;18.55;;;7.85;;
9306;SDS011;4691;47.612;7.610;2022-11-10T04:55:41;19.23;;;8.80;;
9306;SDS011;4691;47.612;7.610;2022-11-10T04:58:07;17.83;;;8.88;;
9306;SDS011;4691;47.612;7.610;2022-11-10T05:00:33;20.48;;;8.70;;
9306;SDS011;4691;47.612;7.610;2022-11-10T05:03:00;23.70;;;8.85;;
9306;SDS011;4691;47.612;7.610;2022-11-10T05:05:26;18.25;;;8.77;;
9306;SDS011;4691;47.612;7.610;2022-11-10T05:07:52;21.70;;;10.82;;
9306;SDS011;4691;47.612;7.610;2022-11-10T05:10:17;19.95;;;9.45;;
9306;SDS011;4691;47.612;7.610;2022-11-10T05:12:43;19.08;;;8.18;;
9306;SDS011;4691;47.612;7.610;2022-11-10T05:15:08;20.70;;;8.75;;
9306;SDS011;4691;47.612;7.610;2022-11-10T05:17:34;23.70;;;9.02;;
9306;SDS011;4691;47.612;7.610;2022-11-10T05:19:59;13.65;;;8.55;;
9306;SDS011;4691;47.612;7.610;2022-11-10T05:22:25;35.42;;;14.20;;
9306;SDS011;4691;47.612;7.610;2022-11-10T05:24:50;23.15;;;11.85;;
9306;SDS011;4691;47.612;7.610;2022-11-10T05:27:15;30.58;;;14.90;;
9306;SDS011;4691;47.612;7.610;2022-11-10T05:29:41;21.20;;;11.35;;
9306;SDS011;4691;47.612;7.610;2022-11-10T05:32:06;21.73;;;10.68;;
9306;SDS011;4691;47.612;7.610;2022-11-10T05:34:31;15.52;;;9.90;;
9306;SDS011;4691;47.612;7.610;2022-11-10T05:36:57;19.92;;;10.48;;
9306;SDS011;4691;47.612;7.610;2022-11-10T05:39:22;16.83;;;10.02;;
9306;SDS011;4691;47.612;7.610;2022-11-10T05:41:47;17.23;;;10.70;;
9306;SDS011;4691;47.612;7.610;2022-11-10T05:44:12;22.30;;;11.82;;
9306;SDS011;4691;47.612;7.610;2022-11-10T05:46:38;18.70;;;10.00;;
9306;SDS011;4691;47.612;7.610;2022-11-10T05:49:03;20.27;;;10.20;;
9306;SDS011;4691;47.612;7.610;2022-11-10T05:51:29;32.00;;;12.25;;
9306;SDS011;4691;47.612;7.610;2022-11-10T05:53:54;22.85;;;12.52;;
9306;SDS011;4691;47.612;7.610;2022-11-10T05:56:19;26.58;;;12.95;;
9306;SDS011;4691;47.612;7.610;2022-11-10T05:58:44;27.92;;;13.90;;
9306;SDS011;4691;47.612;7.610;2022-11-10T06:01:10;26.65;;;13.25;;
9306;SDS011;4691;47.612;7.610;2022-11-10T06:03:35;18.23;;;11.52;;
9306;SDS011;4691;47.612;7.610;2022-11-10T06:06:00;22.92;;;12.65;;
9306;SDS011;4691;47.612;7.610;2022-11-10T06:08:26;23.05;;;11.43;;
9306;SDS011;4691;47.612;7.610;2022-11-10T06:10:51;17.50;;;10.40;;
9306;SDS011;4691;47.612;7.610;2022-11-10T06:13:16;26.17;;;12.35;;
9306;SDS011;4691;47.612;7.610;2022-11-10T06:15:42;22.80;;;12.48;;
9306;SDS011;4691;47.612;7.610;2022-11-10T06:18:07;22.00;;;11.80;;
9306;SDS011;4691;47.612;7.610;2022-11-10T06:20:32;22.08;;;12.10;;
9306;SDS011;4691;47.612;7.610;2022-11-10T06:23:10;21.00;;;12.73;;
9306;SDS011;4691;47.612;7.610;2022-11-10T06:25:36;21.65;;;11.30;;
9306;SDS011;4691;47.612;7.610;2022-11-10T06:28:03;32.15;;;15.88;;
9306;SDS011;4691;47.612;7.610;2022-11-10T06:30:30;21.90;;;12.02;;
9306;SDS011;4691;47.612;7.610;2022-11-10T06:32:57;20.52;;;12.45;;
9306;SDS011;4691;47.612;7.610;2022-11-10T06:35:22;24.52;;;13.18;;
9306;SDS011;4691;47.612;7.610;2022-11-10T06:38:02;31.98;;;16.38;;
9306;SDS011;4691;47.612;7.610;2022-11-10T06:40:29;23.25;;;14.45;;
9306;SDS011;4691;47.612;7.610;2022-11-10T06:42:56;26.25;;;14.05;;
9306;SDS011;4691;47.612;7.610;2022-11-10T06:45:21;32.80;;;15.85;;
9306;SDS011;4691;47.612;7.610;2022-11-10T06:47:47;50.67;;;19.25;;
9306;SDS011;4691;47.612;7.610;2022-11-10T06:50:13;23.60;;;12.57;;
9306;SDS011;4691;47.612;7.610;2022-11-10T06:52:38;28.60;;;14.20;;
9306;SDS011;4691;47.612;7.610;2022-11-10T06:55:04;25.48;;;12.98;;
9306;SDS011;4691;47.612;7.610;2022-11-10T06:57:35;54.78;;;19.13;;
9306;SDS011;4691;47.612;7.610;2022-11-10T07:00:02;35.53;;;15.38;;
9306;SDS011;4691;47.612;7.610;2022-11-10T07:02:28;35.08;;;15.77;;
9306;SDS011;4691;47.612;7.610;2022-11-10T07:04:53;20.40;;;11.48;;
9306;SDS011;4691;47.612;7.610;2022-11-10T07:07:19;23.75;;;12.02;;
9306;SDS011;4691;47.612;7.610;2022-11-10T07:09:44;45.13;;;17.83;;
9306;SDS011;4691;47.612;7.610;2022-11-10T07:12:09;25.15;;;12.13;;
9306;SDS011;4691;47.612;7.610;2022-11-10T07:14:34;37.47;;;16.17;;
9306;SDS011;4691;47.612;7.610;2022-11-10T07:17:00;40.75;;;17.58;;
9306;SDS011;4691;47.612;7.610;2022-11-10T07:19:25;21.05;;;12.18;;
9306;SDS011;4691;47.612;7.610;2022-11-10T07:21:50;28.05;;;12.20;;
9306;SDS011;4691;47.612;7.610;2022-11-10T07:24:16;19.63;;;11.60;;
9306;SDS011;4691;47.612;7.610;2022-11-10T07:26:41;23.88;;;12.95;;
9306;SDS011;4691;47.612;7.610;2022-11-10T07:29:06;18.83;;;11.65;;
9306;SDS011;4691;47.612;7.610;2022-11-10T07:31:32;21.83;;;12.13;;
9306;SDS011;4691;47.612;7.610;2022-11-10T07:33:57;24.10;;;13.32;;
9306;SDS011;4691;47.612;7.610;2022-11-10T07:36:22;28.45;;;16.15;;
9306;SDS011;4691;47.612;7.610;2022-11-10T07:38:47;27.40;;;14.73;;
9306;SDS011;4691;47.612;7.610;2022-11-10T07:41:13;36.03;;;18.58;;
9306;SDS011;4691;47.612;7.610;2022-11-10T07:43:38;26.98;;;13.63;;
9306;SDS011;4691;47.612;7.610;2022-11-10T07:46:03;27.75;;;13.80;;
9306;SDS011;4691;47.612;7.610;2022-11-10T07:48:29;29.65;;;14.73;;
9306;SDS011;4691;47.612;7.610;2022-11-10T07:50:54;30.27;;;13.63;;
9306;SDS011;4691;47.612;7.610;2022-11-10T07:53:19;15.93;;;9.55;;
9306;SDS011;4691;47.612;7.610;2022-11-10T07:55:45;29.95;;;11.00;;
9306;SDS011;4691;47.612;7.610;2022-11-10T07:58:12;23.30;;;10.73;;
9306;SDS011;4691;47.612;7.610;2022-11-10T08:00:39;28.95;;;11.35;;
9306;SDS011;4691;47.612;7.610;2022-11-10T08:03:26;13.73;;;7.65;;
9306;SDS011;4691;47.612;7.610;2022-11-10T08:05:51;22.85;;;8.98;;
9306;SDS011;4691;47.612;7.610;2022-11-10T08:08:16;28.77;;;9.88;;
9306;SDS011;4691;47.612;7.610;2022-11-10T08:10:42;18.05;;;8.65;;
9306;SDS011;4691;47.612;7.610;2022-11-10T08:13:09;16.33;;;8.88;;
9306;SDS011;4691;47.612;7.610;2022-11-10T08:15:36;20.80;;;10.40;;
9306;SDS011;4691;47.612;7.610;2022-11-10T08:18:03;22.42;;;11.27;;
9306;SDS011;4691;47.612;7.610;2022-11-10T08:20:30;18.73;;;9.00;;
9306;SDS011;4691;47.612;7.610;2022-11-10T08:22:56;24.98;;;8.88;;
9306;SDS011;4691;47.612;7.610;2022-11-10T08:25:23;17.75;;;9.00;;
9306;SDS011;4691;47.612;7.610;2022-11-10T08:27:54;14.23;;;8.02;;
9306;SDS011;4691;47.612;7.610;2022-11-10T08:30:21;20.83;;;8.25;;
9306;SDS011;4691;47.612;7.610;2022-11-10T08:32:46;21.90;;;8.63;;
9306;SDS011;4691;47.612;7.610;2022-11-10T08:35:11;13.95;;;8.35;;
9306;SDS011;4691;47.612;7.610;2022-11-10T08:37:36;25.08;;;7.85;;
9306;SDS011;4691;47.612;7.610;2022-11-10T08:40:02;16.23;;;6.93;;
9306;SDS011;4691;47.612;7.610;2022-11-10T08:42:28;14.38;;;5.63;;
9306;SDS011;4691;47.612;7.610;2022-11-10T08:44:53;16.88;;;6.72;;
9306;SDS011;4691;47.612;7.610;2022-11-10T08:47:18;19.45;;;7.68;;
9306;SDS011;4691;47.612;7.610;2022-11-10T08:49:44;11.13;;;5.88;;
9306;SDS011;4691;47.612;7.610;2022-11-10T08:52:09;22.15;;;6.13;;
9306;SDS011;4691;47.612;7.610;2022-11-10T08:54:35;16.73;;;5.30;;
9306;SDS011;4691;47.612;7.610;2022-11-10T08:57:00;17.88;;;5.90;;
9306;SDS011;4691;47.612;7.610;2022-11-10T08:59:25;21.48;;;5.88;;
9306;SDS011;4691;47.612;7.610;2022-11-10T09:01:51;17.40;;;5.57;;
9306;SDS011;4691;47.612;7.610;2022-11-10T09:04:16;10.05;;;5.32;;
9306;SDS011;4691;47.612;7.610;2022-11-10T09:06:41;19.75;;;5.50;;
9306;SDS011;4691;47.612;7.610;2022-11-10T09:09:06;13.13;;;5.10;;
9306;SDS011;4691;47.612;7.610;2022-11-10T09:11:32;14.02;;;4.60;;
9306;SDS011;4691;47.612;7.610;2022-11-10T09:13:57;14.40;;;5.03;;
9306;SDS011;4691;47.612;7.610;2022-11-10T09:16:22;13.40;;;5.35;;
9306;SDS011;4691;47.612;7.610;2022-11-10T09:18:47;18.75;;;4.85;;
9306;SDS011;4691;47.612;7.610;2022-11-10T09:21:13;13.23;;;5.22;;
9306;SDS011;4691;47.612;7.610;2022-11-10T09:23:38;20.17;;;5.80;;
9306;SDS011;4691;47.612;7.610;2022-11-10T09:26:03;8.15;;;4.85;;
9306;SDS011;4691;47.612;7.610;2022-11-10T09:28:31;12.70;;;5.70;;
9306;SDS011;4691;47.612;7.610;2022-11-10T09:30:57;13.48;;;5.05;;
9306;SDS011;4691;47.612;7.610;2022-11-10T09:33:22;9.52;;;4.63;;
9306;SDS011;4691;47.612;7.610;2022-11-10T09:35:47;10.80;;;4.80;;
9306;SDS011;4691;47.612;7.610;2022-11-10T09:38:13;12.10;;;4.15;;
9306;SDS011;4691;47.612;7.610;2022-11-10T09:40:48;10.63;;;4.65;;
9306;SDS011;4691;47.612;7.610;2022-11-10T09:46:23;9.82;;;5.25;;
9306;SDS011;4691;47.612;7.610;2022-11-10T09:48:58;19.05;;;8.90;;
9306;SDS011;4691;47.612;7.610;2022-11-10T09:51:29;14.25;;;7.22;;
9306;SDS011;4691;47.612;7.610;2022-11-10T09:54:03;15.88;;;4.15;;
9306;SDS011;4691;47.612;7.610;2022-11-10T09:56:33;10.73;;;4.20;;
9306;SDS011;4691;47.612;7.610;2022-11-10T09:59:06;11.13;;;4.30;;
9306;SDS011;4691;47.612;7.610;2022-11-10T10:01:44;15.35;;;7.22;;
9306;SDS011;4691;47.612;7.610;2022-11-10T10:04:28;10.13;;;4.32;;
9306;SDS011;4691;47.612;7.610;2022-11-10T10:07:17;11.00;;;3.90;;
9306;SDS011;4691;47.612;7.610;2022-11-10T10:15:26;9.73;;;3.20;;
9306;SDS011;4691;47.612;7.610;2022-11-10T10:18:11;7.53;;;3.33;;
9306;SDS011;4691;47.612;7.610;2022-11-10T10:21:10;12.90;;;4.18;;
9306;SDS011;4691;47.612;7.610;2022-11-10T10:23:48;9.77;;;3.33;;
9306;SDS011;4691;47.612;7.610;2022-11-10T10:26:16;11.45;;;3.60;;
9306;SDS011;4691;47.612;7.610;2022-11-10T10:28:46;10.73;;;3.33;;
9306;SDS011;4691;47.612;7.610;2022-11-10T10:31:16;5.93;;;2.97;;
9306;SDS011;4691;47.612;7.610;2022-11-10T10:33:44;15.02;;;3.72;;
9306;SDS011;4691;47.612;7.610;2022-11-10T10:36:15;12.48;;;3.78;;
9306;SDS011;4691;47.612;7.610;2022-11-10T10:38:44;10.13;;;3.40;;
9306;SDS011;4691;47.612;7.610;2022-11-10T10:41:23;11.88;;;4.55;;
9306;SDS011;4691;47.612;7.610;2022-11-10T10:43:51;14.52;;;4.93;;
9306;SDS011;4691;47.612;7.610;2022-11-10T10:46:19;12.82;;;3.83;;
9306;SDS011;4691;47.612;7.610;2022-11-10T10:49:05;5.43;;;2.92;;
9306;SDS011;4691;47.612;7.610;2022-11-10T10:51:43;11.25;;;3.28;;
9306;SDS011;4691;47.612;7.610;2022-11-10T10:54:25;7.15;;;2.75;;
9306;SDS011;4691;47.612;7.610;2022-11-10T10:59:50;8.25;;;2.70;;
9306;SDS011;4691;47.612;7.610;2022-11-10T11:02:29;13.05;;;3.03;;
9306;SDS011;4691;47.612;7.610;2022-11-10T11:07:33;11.80;;;3.38;;
9306;SDS011;4691;47.612;7.610;2022-11-10T11:09:59;12.93;;;3.45;;
9306;SDS011;4691;47.612;7.610;2022-11-10T11:12:25;11.88;;;3.75;;
9306;SDS011;4691;47.612;7.610;2022-11-10T11:17:52;7.68;;;2.80;;
9306;SDS011;4691;47.612;7.610;2022-11-10T11:20:19;7.53;;;3.40;;
9306;SDS011;4691;47.612;7.610;2022-11-10T11:22:56;11.70;;;3.50;;
9306;SDS011;4691;47.612;7.610;2022-11-10T11:25:32;3.85;;;2.35;;
9306;SDS011;4691;47.612;7.610;2022-11-10T11:31:09;8.02;;;2.92;;
9306;SDS011;4691;47.612;7.610;2022-11-10T11:33:45;6.15;;;2.50;;
9306;SDS011;4691;47.612;7.610;2022-11-10T11:41:51;10.02;;;2.88;;
9306;SDS011;4691;47.612;7.610;2022-11-10T11:55:25;8.35;;;2.08;;
9306;SDS011;4691;47.612;7.610;2022-11-10T12:03:28;8.18;;;2.35;;
9306;SDS011;4691;47.612;7.610;2022-11-10T12:08:42;5.68;;;2.08;;
9306;SDS011;4691;47.612;7.610;2022-11-10T12:14:16;9.05;;;2.25;;
9306;SDS011;4691;47.612;7.610;2022-11-10T12:17:07;9.63;;;2.42;;
9306;SDS011;4691;47.612;7.610;2022-11-10T12:19:49;10.95;;;2.20;;
9306;SDS011;4691;47.612;7.610;2022-11-10T12:22:37;8.90;;;2.38;;
9306;SDS011;4691;47.612;7.610;2022-11-10T12:25:17;5.10;;;1.92;;
9306;SDS011;4691;47.612;7.610;2022-11-10T12:30:45;5.18;;;2.17;;
9306;SDS011;4691;47.612;7.610;2022-11-10T12:33:16;7.53;;;2.25;;
9306;SDS011;4691;47.612;7.610;2022-11-10T12:36:01;8.15;;;2.10;;
9306;SDS011;4691;47.612;7.610;2022-11-10T12:38:39;6.57;;;1.90;;
9306;SDS011;4691;47.612;7.610;2022-11-10T12:41:10;6.38;;;1.75;;
9306;SDS011;4691;47.612;7.610;2022-11-10T12:43:41;6.10;;;1.98;;
9306;SDS011;4691;47.612;7.610;2022-11-10T12:46:21;6.85;;;2.20;;
9306;SDS011;4691;47.612;7.610;2022-11-10T12:49:01;7.40;;;2.30;;
9306;SDS011;4691;47.612;7.610;2022-11-10T12:51:44;7.35;;;2.17;;
9306;SDS011;4691;47.612;7.610;2022-11-10T12:54:18;7.53;;;1.95;;
9306;SDS011;4691;47.612;7.610;2022-11-10T12:56:55;6.90;;;2.03;;
9306;SDS011;4691;47.612;7.610;2022-11-10T13:01:58;5.45;;;2.20;;
9306;SDS011;4691;47.612;7.610;2022-11-10T13:04:27;4.50;;;1.92;;
9306;SDS011;4691;47.612;7.610;2022-11-10T13:07:11;11.45;;;2.80;;
9306;SDS011;4691;47.612;7.610;2022-11-10T13:09:38;4.10;;;1.88;;
9306;SDS011;4691;47.612;7.610;2022-11-10T13:12:13;6.28;;;2.10;;
9306;SDS011;4691;47.612;7.610;2022-11-10T13:14:42;6.18;;;1.95;;
9306;SDS011;4691;47.612;7.610;2022-11-10T13:17:09;5.60;;;2.20;;
9306;SDS011;4691;47.612;7.610;2022-11-10T13:19:55;9.55;;;2.10;;
9306;SDS011;4691;47.612;7.610;2022-11-10T13:22:32;4.25;;;1.90;;
9306;SDS011;4691;47.612;7.610;2022-11-10T13:25:49;8.63;;;2.97;;
9306;SDS011;4691;47.612;7.610;2022-11-10T13:28:02;7.35;;;1.85;;
9306;SDS011;4691;47.612;7.610;2022-11-10T13:30:35;8.75;;;2.20;;
9306;SDS011;4691;47.612;7.610;2022-11-10T13:35:54;9.00;;;2.50;;
9306;SDS011;4691;47.612;7.610;2022-11-10T13:38:36;5.45;;;2.00;;
9306;SDS011;4691;47.612;7.610;2022-11-10T13:43:48;7.38;;;2.25;;
9306;SDS011;4691;47.612;7.610;2022-11-10T13:46:16;8.95;;;3.47;;
9306;SDS011;4691;47.612;7.610;2022-11-10T13:48:53;5.90;;;2.13;;
9306;SDS011;4691;47.612;7.610;2022-11-10T13:51:35;6.00;;;1.90;;
9306;SDS011;4691;47.612;7.610;2022-11-10T13:54:14;4.65;;;1.50;;
9306;SDS011;4691;47.612;7.610;2022-11-10T13:59:45;7.00;;;1.95;;
9306;SDS011;4691;47.612;7.610;2022-11-10T14:04:58;3.92;;;1.83;;
9306;SDS011;4691;47.612;7.610;2022-11-10T14:07:32;3.17;;;1.38;;
9306;SDS011;4691;47.612;7.610;2022-11-10T14:10:12;3.72;;;1.30;;
9306;SDS011;4691;47.612;7.610;2022-11-10T14:12:48;4.93;;;2.08;;
9306;SDS011;4691;47.612;7.610;2022-11-10T14:15:18;4.25;;;1.40;;
9306;SDS011;4691;47.612;7.610;2022-11-10T14:17:47;5.50;;;1.70;;
9306;SDS011;4691;47.612;7.610;2022-11-10T14:22:59;3.15;;;1.50;;
9306;SDS011;4691;47.612;7.610;2022-11-10T14:28:17;5.55;;;1.30;;
9306;SDS011;4691;47.612;7.610;2022-11-10T14:31:02;4.78;;;1.45;;
9306;SDS011;4691;47.612;7.610;2022-11-10T14:33:28;5.85;;;1.70;;
9306;SDS011;4691;47.612;7.610;2022-11-10T14:35:55;4.38;;;1.35;;
9306;SDS011;4691;47.612;7.610;2022-11-10T14:38:23;6.75;;;1.30;;
9306;SDS011;4691;47.612;7.610;2022-11-10T14:40:54;4.80;;;1.47;;
9306;SDS011;4691;47.612;7.610;2022-11-10T14:43:26;6.40;;;1.77;;
9306;SDS011;4691;47.612;7.610;2022-11-10T14:45:54;6.55;;;2.10;;
9306;SDS011;4691;47.612;7.610;2022-11-10T14:48:20;8.10;;;1.88;;
9306;SDS011;4691;47.612;7.610;2022-11-10T14:50:47;2.73;;;1.70;;
9306;SDS011;4691;47.612;7.610;2022-11-10T14:53:22;5.88;;;1.60;;
9306;SDS011;4691;47.612;7.610;2022-11-10T14:55:53;5.40;;;1.58;;
9306;SDS011;4691;47.612;7.610;2022-11-10T14:58:21;4.97;;;1.50;;
9306;SDS011;4691;47.612;7.610;2022-11-10T15:00:49;3.25;;;1.23;;
9306;SDS011;4691;47.612;7.610;2022-11-10T15:03:16;3.95;;;1.33;;
9306;SDS011;4691;47.612;7.610;2022-11-10T15:05:50;7.43;;;1.70;;
9306;SDS011;4691;47.612;7.610;2022-11-10T15:08:15;3.75;;;1.58;;
9306;SDS011;4691;47.612;7.610;2022-11-10T15:15:37;4.68;;;1.40;;
9306;SDS011;4691;47.612;7.610;2022-11-10T15:18:04;4.07;;;1.50;;
9306;SDS011;4691;47.612;7.610;2022-11-10T15:20:54;4.10;;;1.60;;
9306;SDS011;4691;47.612;7.610;2022-11-10T15:23:33;4.72;;;1.58;;
9306;SDS011;4691;47.612;7.610;2022-11-10T15:26:02;9.13;;;1.92;;
9306;SDS011;4691;47.612;7.610;2022-11-10T15:28:29;5.07;;;2.03;;
9306;SDS011;4691;47.612;7.610;2022-11-10T15:30:58;9.85;;;1.95;;
9306;SDS011;4691;47.612;7.610;2022-11-10T15:33:26;7.75;;;3.15;;
9306;SDS011;4691;47.612;7.610;2022-11-10T15:35:54;5.40;;;2.30;;
9306;SDS011;4691;47.612;7.610;2022-11-10T15:38:37;7.88;;;2.55;;
9306;SDS011;4691;47.612;7.610;2022-11-10T15:43:35;10.27;;;3.17;;
9306;SDS011;4691;47.612;7.610;2022-11-10T15:46:01;9.65;;;3.20;;
9306;SDS011;4691;47.612;7.610;2022-11-10T15:48:51;7.20;;;2.95;;
9306;SDS011;4691;47.612;7.610;2022-11-10T15:51:17;5.35;;;2.67;;
9306;SDS011;4691;47.612;7.610;2022-11-10T15:53:45;5.63;;;2.70;;
9306;SDS011;4691;47.612;7.610;2022-11-10T15:56:13;8.65;;;3.80;;
9306;SDS011;4691;47.612;7.610;2022-11-10T15:58:41;5.75;;;2.10;;
9306;SDS011;4691;47.612;7.610;2022-11-10T16:01:10;6.20;;;2.10;;
9306;SDS011;4691;47.612;7.610;2022-11-10T16:03:36;8.70;;;2.03;;
9306;SDS011;4691;47.612;7.610;2022-11-10T16:06:01;4.57;;;2.35;;
9306;SDS011;4691;47.612;7.610;2022-11-10T16:08:27;5.72;;;2.42;;
9306;SDS011;4691;47.612;7.610;2022-11-10T16:10:55;5.43;;;2.22;;
9306;SDS011;4691;47.612;7.610;2022-11-10T16:13:21;7.10;;;2.30;;
9306;SDS011;4691;47.612;7.610;2022-11-10T16:15:49;7.82;;;3.17;;
9306;SDS011;4691;47.612;7.610;2022-11-10T16:18:15;12.38;;;3.97;;
9306;SDS011;4691;47.612;7.610;2022-11-10T16:20:46;22.20;;;6.15;;
9306;SDS011;4691;47.612;7.610;2022-11-10T16:23:12;27.58;;;8.82;;
9306;SDS011;4691;47.612;7.610;2022-11-10T16:25:37;19.08;;;7.45;;
9306;SDS011;4691;47.612;7.610;2022-11-10T16:28:04;22.20;;;7.03;;
9306;SDS011;4691;47.612;7.610;2022-11-10T16:30:30;18.10;;;7.25;;
9306;SDS011;4691;47.612;7.610;2022-11-10T16:32:56;10.57;;;5.07;;
9306;SDS011;4691;47.612;7.610;2022-11-10T16:35:22;6.40;;;4.13;;